createdAt,value
2022-08-21T00:00:32.741Z,99.90
2022-08-21T00:03:05.381Z,99.90
2022-08-21T00:05:34.578Z,99.90
2022-08-21T00:08:02.735Z,99.90
2022-08-21T00:10:31.286Z,99.90
2022-08-21T00:12:59.578Z,99.90
2022-08-21T00:15:30.346Z,99.90
2022-08-21T00:17:59.890Z,99.90
2022-08-21T00:20:29.673Z,99.90
2022-08-21T00:22:57.995Z,99.90
2022-08-21T00:25:26.470Z,99.90
2022-08-21T00:27:55.223Z,99.90
2022-08-21T00:30:24.913Z,99.90
2022-08-21T00:32:53.822Z,99.90
2022-08-21T00:35:24.231Z,99.90
2022-08-21T00:37:53.718Z,99.90
2022-08-21T00:40:25.883Z,99.90
2022-08-21T00:42:54.214Z,99.90
2022-08-21T00:45:23.505Z,99.90
2022-08-21T00:47:52.033Z,99.90
2022-08-21T00:50:22.151Z,99.90
2022-08-21T00:52:53.741Z,99.90
2022-08-21T00:55:24.155Z,99.90
2022-08-21T00:57:55.898Z,99.90
2022-08-21T01:00:31.216Z,99.90
2022-08-21T01:03:00.404Z,99.90
2022-08-21T01:05:28.567Z,99.90
2022-08-21T01:07:58.941Z,99.90
2022-08-21T01:10:27.450Z,99.90
2022-08-21T01:12:57.764Z,99.90
2022-08-21T01:15:29.775Z,99.90
2022-08-21T01:17:57.988Z,99.90
2022-08-21T01:20:32.449Z,99.90
2022-08-21T01:23:02.629Z,99.90
2022-08-21T01:25:31.263Z,99.90
2022-08-21T01:28:02.411Z,99.90
2022-08-21T01:30:30.969Z,99.90
2022-08-21T01:32:59.762Z,99.90
2022-08-21T01:35:30.930Z,99.90
2022-08-21T01:37:59.027Z,99.90
2022-08-21T01:40:28.627Z,99.90
2022-08-21T01:42:56.767Z,99.90
2022-08-21T01:45:25.376Z,99.90
2022-08-21T01:47:53.503Z,99.90
2022-08-21T01:50:22.225Z,99.90
2022-08-21T01:52:51.398Z,99.90
2022-08-21T01:55:20.272Z,99.90
2022-08-21T01:57:50.528Z,99.90
2022-08-21T02:00:23.790Z,99.90
2022-08-21T02:02:52.497Z,99.90
2022-08-21T02:05:21.591Z,99.90
2022-08-21T02:07:52.433Z,99.90
2022-08-21T02:10:23.510Z,99.90
2022-08-21T02:12:52.975Z,99.90
2022-08-21T02:15:21.457Z,99.90
2022-08-21T02:17:52.053Z,99.90
2022-08-21T02:20:24.095Z,99.90
2022-08-21T02:22:52.218Z,99.90
2022-08-21T02:25:22.259Z,99.90
2022-08-21T02:27:52.073Z,99.90
2022-08-21T02:30:24.897Z,99.90
2022-08-21T02:32:53.110Z,99.90
2022-08-21T02:35:22.331Z,99.90
2022-08-21T02:37:53.968Z,99.90
2022-08-21T02:40:24.294Z,99.90
2022-08-21T02:42:53.948Z,99.90
2022-08-21T02:45:22.750Z,99.90
2022-08-21T02:47:52.977Z,99.90
2022-08-21T02:50:23.358Z,99.90
2022-08-21T02:52:55.177Z,99.90
2022-08-21T02:55:24.560Z,99.90
2022-08-21T02:57:54.864Z,99.90
2022-08-21T03:05:53.755Z,99.90
2022-08-21T03:08:24.195Z,99.90
2022-08-21T03:10:55.986Z,99.90
2022-08-21T03:13:25.485Z,99.90
2022-08-21T03:15:53.577Z,99.90
2022-08-21T03:18:21.985Z,99.90
2022-08-21T03:20:50.835Z,99.90
2022-08-21T03:23:19.902Z,99.90
2022-08-21T03:25:49.373Z,99.90
2022-08-21T03:28:20.051Z,99.90
2022-08-21T03:30:51.676Z,99.90
2022-08-21T03:33:23.282Z,99.90
2022-08-21T03:36:01.682Z,99.90
2022-08-21T03:38:31.586Z,99.90
2022-08-21T03:41:00.666Z,99.90
2022-08-21T03:43:32.129Z,99.90
2022-08-21T03:46:03.006Z,99.90
2022-08-21T03:48:31.667Z,99.90
2022-08-21T03:50:59.843Z,99.90
2022-08-21T03:53:28.168Z,99.90
2022-08-21T03:55:56.316Z,99.90
2022-08-21T03:58:27.538Z,99.90
2022-08-21T04:00:59.538Z,99.90
2022-08-21T04:03:29.711Z,99.90
2022-08-21T04:05:58.117Z,99.90
2022-08-21T04:08:26.377Z,99.90
2022-08-21T04:10:57.446Z,99.90
2022-08-21T04:13:25.608Z,99.90
2022-08-21T04:15:53.679Z,99.90
2022-08-21T04:18:21.741Z,99.90
2022-08-21T04:20:53.604Z,99.90
2022-08-21T04:23:24.546Z,99.90
2022-08-21T04:25:53.200Z,99.90
2022-08-21T04:28:21.586Z,99.90
2022-08-21T04:30:53.072Z,99.90
2022-08-21T04:33:21.570Z,99.90
2022-08-21T04:35:51.650Z,99.90
2022-08-21T04:38:20.496Z,99.90
2022-08-21T04:40:50.382Z,99.90
2022-08-21T04:43:19.204Z,99.90
2022-08-21T04:45:50.137Z,99.90
2022-08-21T04:48:23.122Z,99.90
2022-08-21T04:50:56.279Z,99.90
2022-08-21T04:53:30.370Z,99.90
2022-08-21T04:56:03.319Z,99.90
2022-08-21T04:58:31.955Z,99.90
2022-08-21T05:01:01.843Z,99.90
2022-08-21T05:03:32.471Z,99.90
2022-08-21T05:06:05.201Z,99.90
2022-08-21T05:08:36.010Z,99.90
2022-08-21T05:11:06.519Z,99.90
2022-08-21T05:13:34.718Z,99.90
2022-08-21T05:16:02.852Z,99.90
2022-08-21T05:18:30.977Z,99.90
2022-08-21T05:20:59.143Z,99.90
2022-08-21T05:23:28.791Z,99.90
2022-08-21T05:25:57.201Z,99.90
2022-08-21T05:28:25.354Z,99.90
2022-08-21T05:30:55.487Z,99.90
2022-08-21T05:33:23.727Z,99.90
2022-08-21T05:35:53.436Z,99.90
2022-08-21T05:38:21.658Z,99.90
2022-08-21T05:40:51.244Z,99.90
2022-08-21T05:43:19.459Z,99.90
2022-08-21T05:45:48.468Z,99.90
2022-08-21T05:48:19.543Z,99.90
2022-08-21T05:50:49.135Z,99.90
2022-08-21T05:53:18.875Z,99.90
2022-08-21T05:55:48.044Z,99.90
2022-08-21T05:58:19.568Z,99.90
2022-08-21T06:00:49.215Z,99.90
2022-08-21T06:03:19.238Z,99.90
2022-08-21T06:05:47.482Z,99.90
2022-08-21T06:08:15.752Z,99.90
2022-08-21T06:10:44.502Z,99.90
2022-08-21T06:13:13.118Z,99.90
2022-08-21T06:15:42.698Z,99.90
2022-08-21T06:18:10.870Z,99.90
2022-08-21T06:20:39.248Z,99.90
2022-08-21T06:23:07.631Z,99.90
2022-08-21T06:25:35.988Z,99.90
2022-08-21T06:28:05.897Z,99.90
2022-08-21T06:30:34.395Z,99.90
2022-08-21T06:33:04.372Z,98.50
2022-08-21T06:35:32.738Z,99.70
2022-08-21T06:38:01.037Z,99.00
2022-08-21T06:40:30.141Z,97.00
2022-08-21T06:42:59.459Z,96.50
2022-08-21T06:45:32.405Z,96.20
2022-08-21T06:48:00.953Z,95.50
2022-08-21T06:50:31.216Z,95.10
2022-08-21T06:53:04.528Z,95.30
2022-08-21T06:55:32.958Z,95.10
2022-08-21T06:58:01.296Z,94.60
2022-08-21T07:00:29.520Z,95.00
2022-08-21T07:02:58.021Z,94.60
2022-08-21T07:05:27.954Z,93.60
2022-08-21T07:07:58.040Z,93.50
2022-08-21T07:10:26.831Z,93.40
2022-08-21T07:13:01.205Z,93.20
2022-08-21T07:15:30.831Z,93.20
2022-08-21T07:18:00.256Z,92.90
2022-08-21T07:20:29.349Z,93.10
2022-08-21T07:23:00.992Z,93.00
2022-08-21T07:25:29.433Z,92.40
2022-08-21T07:27:57.627Z,92.30
2022-08-21T07:30:26.205Z,92.60
2022-08-21T07:32:54.493Z,93.20
2022-08-21T07:35:24.019Z,92.80
2022-08-21T07:37:52.326Z,92.70
2022-08-21T07:40:22.101Z,92.70
2022-08-21T07:42:52.660Z,92.80
2022-08-21T07:45:22.555Z,92.20
2022-08-21T07:47:54.248Z,92.30
2022-08-21T07:50:25.598Z,92.00
2022-08-21T07:52:53.828Z,92.40
2022-08-21T07:55:23.995Z,92.20
2022-08-21T07:57:52.509Z,92.00
2022-08-21T08:00:24.278Z,92.70
2022-08-21T08:02:54.113Z,93.20
2022-08-21T08:05:25.040Z,94.60
2022-08-21T08:07:53.484Z,96.00
2022-08-21T08:10:24.969Z,97.70
2022-08-21T08:12:55.648Z,98.20
2022-08-21T08:15:26.375Z,97.50
2022-08-21T08:17:55.848Z,96.70
2022-08-21T08:20:26.036Z,94.90
2022-08-21T08:22:54.530Z,94.10
2022-08-21T08:25:26.212Z,92.80
2022-08-21T08:27:54.574Z,92.50
2022-08-21T08:30:24.715Z,92.40
2022-08-21T08:32:52.959Z,92.80
2022-08-21T08:35:22.385Z,92.70
2022-08-21T08:37:53.196Z,92.50
2022-08-21T08:40:30.347Z,92.60
2022-08-21T08:42:58.868Z,91.90
2022-08-21T08:45:28.285Z,91.90
2022-08-21T08:48:00.236Z,91.90
2022-08-21T08:50:34.040Z,92.00
2022-08-21T08:53:06.123Z,91.70
2022-08-21T08:55:38.482Z,91.90
2022-08-21T08:58:07.048Z,91.80
2022-08-21T09:00:35.774Z,91.10
2022-08-21T09:03:05.201Z,90.80
2022-08-21T09:05:43.113Z,91.20
2022-08-21T09:08:30.981Z,91.60
2022-08-21T09:11:06.019Z,91.70
2022-08-21T09:13:50.441Z,92.20
2022-08-21T09:16:30.070Z,93.10
2022-08-21T09:19:06.282Z,92.50
2022-08-21T09:21:45.222Z,92.10
2022-08-21T09:24:28.063Z,91.70
2022-08-21T09:27:05.755Z,91.50
2022-08-21T09:29:36.605Z,91.40
2022-08-21T09:32:11.921Z,90.80
2022-08-21T09:34:42.473Z,90.80
2022-08-21T09:37:18.665Z,91.50
2022-08-21T09:39:48.915Z,91.20
2022-08-21T09:42:25.457Z,90.80
2022-08-21T09:45:08.966Z,91.40
2022-08-21T09:47:40.048Z,91.70
2022-08-21T09:50:15.121Z,91.90
2022-08-21T09:52:52.219Z,91.50
2022-08-21T09:55:51.699Z,91.30
2022-08-21T09:58:23.009Z,91.20
2022-08-21T10:01:00.913Z,90.60
2022-08-21T10:03:29.834Z,90.20
2022-08-21T10:06:02.828Z,90.60
2022-08-21T10:08:33.639Z,91.60
2022-08-21T10:11:07.654Z,90.80
2022-08-21T10:13:47.766Z,90.90
2022-08-21T10:16:27.572Z,89.30
2022-08-21T10:19:12.151Z,90.20
2022-08-21T10:21:54.347Z,90.80
2022-08-21T10:24:32.149Z,90.70
2022-08-21T10:27:21.678Z,90.50
2022-08-21T10:29:57.224Z,90.70
2022-08-21T10:32:48.426Z,90.50
2022-08-21T10:35:24.123Z,89.50
2022-08-21T10:38:39.283Z,89.60
2022-08-21T10:41:16.107Z,90.50
2022-08-21T10:43:52.901Z,90.50
2022-08-21T10:46:30.897Z,91.00
2022-08-21T10:49:04.388Z,90.80
2022-08-21T10:51:39.261Z,90.60
2022-08-21T10:54:13.482Z,91.50
2022-08-21T10:56:44.006Z,90.50
2022-08-21T10:59:27.733Z,90.70
2022-08-21T11:02:02.712Z,91.00
2022-08-21T11:04:49.298Z,91.50
2022-08-21T11:07:24.705Z,91.20
2022-08-21T11:09:56.407Z,91.50
2022-08-21T11:12:29.961Z,91.50
2022-08-21T11:15:02.860Z,91.40
2022-08-21T11:17:38.966Z,91.10
2022-08-21T11:20:12.048Z,91.10
2022-08-21T11:22:46.076Z,91.40
2022-08-21T11:25:25.692Z,90.20
2022-08-21T11:28:05.661Z,90.10
2022-08-21T11:30:46.526Z,90.50
2022-08-21T11:33:30.777Z,91.00
2022-08-21T11:36:05.258Z,91.50
2022-08-21T11:38:41.532Z,92.10
2022-08-21T11:41:25.609Z,93.00
2022-08-21T11:44:00.721Z,93.50
2022-08-21T11:46:39.680Z,92.80
2022-08-21T11:49:23.740Z,93.00
2022-08-21T11:51:59.489Z,92.70
2022-08-21T12:02:14.763Z,92.00
2022-08-21T12:04:49.697Z,91.00
2022-08-21T12:07:20.291Z,90.30
2022-08-21T12:09:58.353Z,90.60
2022-08-21T12:12:30.811Z,90.30
2022-08-21T12:15:18.101Z,90.00
2022-08-21T12:17:57.596Z,89.10
2022-08-21T12:20:50.093Z,90.30
2022-08-21T12:23:28.215Z,90.50
2022-08-21T12:26:22.529Z,90.20
2022-08-21T12:28:50.816Z,90.10
2022-08-21T12:31:25.102Z,90.40
2022-08-21T12:33:57.788Z,90.50
2022-08-21T12:36:34.820Z,90.90
2022-08-21T12:39:13.435Z,91.30
2022-08-21T12:41:48.532Z,90.80
2022-08-21T12:44:19.009Z,90.80
2022-08-21T12:46:53.327Z,91.40
2022-08-21T12:49:29.399Z,91.60
2022-08-21T12:52:11.318Z,91.80
2022-08-21T12:54:43.609Z,91.20
2022-08-21T12:57:21.127Z,91.10
2022-08-21T12:59:55.391Z,90.70
2022-08-21T13:02:26.825Z,90.80
2022-08-21T13:04:56.339Z,90.00
2022-08-21T13:07:30.109Z,89.70
2022-08-21T13:10:03.913Z,90.60
2022-08-21T13:12:32.944Z,90.60
2022-08-21T13:15:08.717Z,91.10
2022-08-21T13:17:40.849Z,91.10
2022-08-21T13:20:12.441Z,91.10
2022-08-21T13:22:45.346Z,90.80
2022-08-21T13:25:14.900Z,91.00
2022-08-21T13:27:43.778Z,90.20
2022-08-21T13:30:15.735Z,89.80
2022-08-21T13:32:46.306Z,90.10
2022-08-21T13:35:18.531Z,90.30
2022-08-21T13:37:50.770Z,90.20
2022-08-21T13:40:21.982Z,89.20
2022-08-21T13:42:50.880Z,89.80
2022-08-21T13:45:26.006Z,90.40
2022-08-21T13:47:55.298Z,90.50
2022-08-21T13:50:26.828Z,90.70
2022-08-21T13:53:03.861Z,90.80
2022-08-21T13:55:40.797Z,90.90
2022-08-21T13:58:09.635Z,90.80
2022-08-21T14:00:47.101Z,90.50
2022-08-21T14:03:30.616Z,90.60
2022-08-21T14:06:00.371Z,90.60
2022-08-21T14:08:35.250Z,90.60
2022-08-21T14:11:06.013Z,90.00
2022-08-21T14:13:41.544Z,88.60
2022-08-21T14:16:19.802Z,88.90
2022-08-21T14:18:50.881Z,89.30
2022-08-21T14:21:31.180Z,89.40
2022-08-21T14:24:10.201Z,88.90
2022-08-21T14:26:46.486Z,90.00
2022-08-21T14:29:17.015Z,90.20
2022-08-21T14:31:45.912Z,90.20
2022-08-21T14:34:19.703Z,90.50
2022-08-21T14:36:48.938Z,90.80
2022-08-21T14:39:18.706Z,90.60
2022-08-21T14:41:49.535Z,91.00
2022-08-21T14:44:18.903Z,91.30
2022-08-21T14:46:56.466Z,90.50
2022-08-21T14:49:27.307Z,90.40
2022-08-21T14:51:58.242Z,90.10
2022-08-21T14:54:30.700Z,90.00
2022-08-21T14:57:01.976Z,89.20
2022-08-21T14:59:30.421Z,90.20
2022-08-21T15:01:58.488Z,90.40
2022-08-21T15:04:26.560Z,90.30
2022-08-21T15:06:54.667Z,90.40
2022-08-21T15:09:22.734Z,90.00
2022-08-21T15:11:53.209Z,90.20
2022-08-21T15:14:23.754Z,90.30
2022-08-21T15:16:53.071Z,90.40
2022-08-21T15:19:21.803Z,90.60
2022-08-21T15:21:50.442Z,90.20
2022-08-21T15:24:18.783Z,90.10
2022-08-21T15:26:48.478Z,89.60
2022-08-21T15:29:22.913Z,90.10
2022-08-21T15:31:57.502Z,90.20
2022-08-21T15:34:27.097Z,89.00
2022-08-21T15:36:57.001Z,87.80
2022-08-21T15:39:31.273Z,88.60
2022-08-21T15:42:02.821Z,87.80
2022-08-21T15:44:41.074Z,88.40
2022-08-21T15:47:13.201Z,88.90
2022-08-21T15:49:43.693Z,90.00
2022-08-21T15:52:11.773Z,90.00
2022-08-21T15:54:39.864Z,89.50
2022-08-21T15:57:08.013Z,89.80
2022-08-21T15:59:44.867Z,89.80
2022-08-21T16:02:18.264Z,90.30
2022-08-21T16:04:46.359Z,90.70
2022-08-21T16:07:14.511Z,90.80
2022-08-21T16:09:42.607Z,91.00
2022-08-21T16:12:13.084Z,91.10
2022-08-21T16:14:41.328Z,90.80
2022-08-21T16:17:11.055Z,90.60
2022-08-21T16:19:39.682Z,90.70
2022-08-21T16:22:07.728Z,91.00
2022-08-21T16:24:36.594Z,90.70
2022-08-21T16:27:07.981Z,91.00
2022-08-21T16:29:39.589Z,90.80
2022-08-21T16:32:08.964Z,90.90
2022-08-21T16:34:47.124Z,91.00
2022-08-21T16:37:24.007Z,91.30
2022-08-21T16:39:53.231Z,91.30
2022-08-21T16:42:25.914Z,91.40
2022-08-21T16:44:54.876Z,91.70
2022-08-21T16:47:27.266Z,91.90
2022-08-21T16:49:57.239Z,91.90
2022-08-21T16:52:25.415Z,92.10
2022-08-21T16:54:53.458Z,92.50
2022-08-21T16:57:21.725Z,93.00
2022-08-21T16:59:49.806Z,93.40
2022-08-21T17:02:25.980Z,94.20
2022-08-21T17:04:54.002Z,94.40
2022-08-21T17:07:23.541Z,94.40
2022-08-21T17:09:51.969Z,94.70
2022-08-21T17:12:20.267Z,95.00
2022-08-21T17:14:49.332Z,95.20
2022-08-21T17:17:18.143Z,95.60
2022-08-21T17:19:46.655Z,95.70
2022-08-21T17:22:14.757Z,95.50
2022-08-21T17:24:44.174Z,95.50
2022-08-21T17:27:12.863Z,95.70
2022-08-21T17:29:42.437Z,95.30
2022-08-21T17:32:12.420Z,95.00
2022-08-21T17:34:41.491Z,95.00
2022-08-21T17:37:09.606Z,95.00
2022-08-21T17:39:37.786Z,93.80
2022-08-21T17:42:11.464Z,94.00
2022-08-21T17:44:41.371Z,94.30
2022-08-21T17:47:11.228Z,94.10
2022-08-21T17:49:39.350Z,94.30
2022-08-21T17:52:08.375Z,94.50
2022-08-21T17:54:37.199Z,94.50
2022-08-21T17:57:08.228Z,94.80
2022-08-21T17:59:36.276Z,95.00
2022-08-21T18:02:09.937Z,95.40
2022-08-21T18:04:50.414Z,95.80
2022-08-21T18:07:32.000Z,95.80
2022-08-21T18:10:01.022Z,96.10
2022-08-21T18:12:31.500Z,96.40
2022-08-21T18:15:00.053Z,96.50
2022-08-21T18:17:30.329Z,96.70
2022-08-21T18:19:59.643Z,96.80
2022-08-21T18:22:27.992Z,96.80
2022-08-21T18:24:56.065Z,97.10
2022-08-21T18:27:29.085Z,97.10
2022-08-21T18:30:01.276Z,97.20
2022-08-21T18:32:32.241Z,97.60
2022-08-21T18:35:02.290Z,98.00
2022-08-21T18:37:31.091Z,97.80
2022-08-21T18:40:00.704Z,98.00
2022-08-21T18:42:30.434Z,98.20
2022-08-21T18:45:03.161Z,98.40
2022-08-21T18:47:37.171Z,98.60
2022-08-21T18:50:05.746Z,98.90
2022-08-21T18:52:39.877Z,99.30
2022-08-21T18:55:22.607Z,99.40
2022-08-21T18:57:50.666Z,99.70
2022-08-21T19:00:24.303Z,99.90
2022-08-21T19:02:52.570Z,99.90
2022-08-21T19:11:02.448Z,99.90
2022-08-21T19:13:30.925Z,99.90
2022-08-21T19:16:03.895Z,99.90
2022-08-21T19:18:35.324Z,99.90
2022-08-21T19:21:03.780Z,99.90
2022-08-21T19:41:51.344Z,99.90
2022-08-21T19:44:23.093Z,99.90
2022-08-21T19:46:54.932Z,99.90
2022-08-21T19:49:27.437Z,99.90
2022-08-21T19:51:55.520Z,99.90
2022-08-21T19:54:26.636Z,99.90
2022-08-21T19:56:58.731Z,99.90
2022-08-21T19:59:32.749Z,99.90
2022-08-21T20:02:01.082Z,99.90
2022-08-21T20:04:30.983Z,99.90
2022-08-21T20:06:59.248Z,99.90
2022-08-21T20:09:27.460Z,99.90
2022-08-21T20:11:58.875Z,99.90
2022-08-21T20:17:20.601Z,99.90
2022-08-21T20:19:54.391Z,99.90
2022-08-21T20:22:24.129Z,99.90
2022-08-21T20:24:52.533Z,99.90
2022-08-21T20:27:25.545Z,99.90
2022-08-21T20:29:53.919Z,99.90
2022-08-21T20:32:22.718Z,99.90
2022-08-21T20:34:52.164Z,99.90
2022-08-21T20:37:39.274Z,99.90
2022-08-21T20:40:11.607Z,99.90
2022-08-21T20:42:44.886Z,99.90
2022-08-21T20:45:18.682Z,99.90
2022-08-21T20:50:41.827Z,99.90
2022-08-21T20:53:17.230Z,99.90
2022-08-21T20:55:49.322Z,99.90
2022-08-21T20:58:34.419Z,99.90
2022-08-21T21:01:06.650Z,99.90
2022-08-21T21:03:42.289Z,99.90
2022-08-21T21:06:15.482Z,99.90
2022-08-21T21:08:48.941Z,99.90
2022-08-21T21:11:22.329Z,99.90
2022-08-21T21:13:55.471Z,99.90
2022-08-21T21:16:31.257Z,99.90
2022-08-21T21:19:03.581Z,99.90
2022-08-21T21:21:35.305Z,99.90
2022-08-21T21:24:08.365Z,99.90
2022-08-21T21:26:46.125Z,99.90
2022-08-21T21:29:22.185Z,99.90
2022-08-21T21:31:52.509Z,99.90
2022-08-21T21:34:22.073Z,99.90
2022-08-21T21:36:56.483Z,99.90
2022-08-21T21:42:30.308Z,99.90
2022-08-21T21:49:49.491Z,99.90
2022-08-21T21:52:36.125Z,99.90
2022-08-21T21:55:23.601Z,99.90
2022-08-21T21:58:16.972Z,99.90
2022-08-21T22:00:52.118Z,99.90
2022-08-21T22:03:25.310Z,99.90
2022-08-21T22:06:01.281Z,99.90
2022-08-21T22:08:39.395Z,99.90
2022-08-21T22:11:24.264Z,99.90
2022-08-21T22:14:05.030Z,99.90
2022-08-21T22:16:34.455Z,99.90
2022-08-21T22:19:09.365Z,99.90
2022-08-21T22:21:47.468Z,99.90
2022-08-21T22:24:23.161Z,99.90
2022-08-21T22:26:55.529Z,99.90
2022-08-21T22:29:24.933Z,99.90
2022-08-21T22:32:05.603Z,99.90
2022-08-21T22:34:35.426Z,99.90
2022-08-21T22:37:08.148Z,99.90
2022-08-21T22:39:40.335Z,99.90
2022-08-21T22:42:13.661Z,99.90
2022-08-21T22:44:56.151Z,99.90
2022-08-21T22:47:31.499Z,99.90
2022-08-21T22:50:04.552Z,99.90
2022-08-21T22:52:36.772Z,99.90
2022-08-21T22:55:24.210Z,99.90
2022-08-21T22:58:05.918Z,99.90
2022-08-21T23:00:53.812Z,99.90
2022-08-21T23:03:31.766Z,99.90
2022-08-21T23:06:33.890Z,99.90
2022-08-21T23:09:03.065Z,99.90
2022-08-21T23:11:39.828Z,99.90
2022-08-21T23:14:08.167Z,99.90
2022-08-21T23:16:53.983Z,99.90
2022-08-21T23:19:38.028Z,99.90
2022-08-21T23:22:24.157Z,99.90
2022-08-21T23:25:06.559Z,99.90
2022-08-21T23:27:53.693Z,99.90
2022-08-21T23:30:31.956Z,99.90
2022-08-21T23:33:22.884Z,99.90
2022-08-21T23:36:19.677Z,99.90
2022-08-21T23:39:05.067Z,99.90
2022-08-21T23:41:39.798Z,99.90
2022-08-21T23:44:25.483Z,99.90
2022-08-21T23:47:23.316Z,99.90
2022-08-21T23:49:57.788Z,99.90
2022-08-21T23:52:37.660Z,99.90
2022-08-21T23:55:42.309Z,99.90
2022-08-21T23:58:24.300Z,99.90
